Time;durP1;ratioP1;P1;durP2;ratioP2;P2;SDS_P1;SDS_P2;PMS_P1;PMS_P2;Temp;Humidity;BMP_temperature;BMP_pressure;BME280_temperature;BME280_humidity;BME280_pressure;Samples;Min_cycle;Max_cycle;Signal;HPM_P1;HPM_P2
2021/12/17 00:00:57;;;;;;;37.00;15.43;;;8.90;99.90;;;;;;5094976;28;20131;-51
2021/12/17 00:03:34;;;;;;;25.45;13.10;;;8.90;99.90;;;;;;5095027;28;20079;-51
2021/12/17 00:08:39;;;;;;;33.65;15.45;;;8.90;99.90;;;;;;5095076;28;20169;-50
2021/12/17 00:11:06;;;;;;;28.77;13.95;;;8.90;99.90;;;;;;5094530;28;20139;-53
2021/12/17 00:13:33;;;;;;;31.65;13.95;;;8.80;99.90;;;;;;5094650;28;20036;-52
2021/12/17 00:16:00;;;;;;;27.23;13.55;;;8.80;99.90;;;;;;5094462;28;20478;-51
2021/12/17 00:18:35;;;;;;;27.05;13.68;;;8.80;99.90;;;;;;5094473;28;20444;-53
2021/12/17 00:43:55;;;;;;;33.67;13.43;;;8.80;99.90;;;;;;5093990;28;20138;-52
2021/12/17 00:48:43;;;;;;;32.83;13.85;;;8.70;99.90;;;;;;5094091;28;20040;-52
2021/12/17 00:53:57;;;;;;;28.85;12.75;;;8.70;99.90;;;;;;5093608;28;20040;-52
2021/12/17 00:56:23;;;;;;;21.98;10.02;;;8.70;99.90;;;;;;5093856;28;20161;-51
2021/12/17 00:58:48;;;;;;;25.33;10.30;;;8.70;99.90;;;;;;5093664;28;20559;-50
2021/12/17 01:01:16;;;;;;;21.85;10.60;;;8.70;99.90;;;;;;5093504;28;20245;-50
2021/12/17 01:03:41;;;;;;;19.35;9.48;;;8.70;99.90;;;;;;5093631;28;20149;-48
2021/12/17 01:06:07;;;;;;;23.15;10.55;;;8.60;99.90;;;;;;5093050;28;20212;-53
2021/12/17 01:08:33;;;;;;;22.83;10.27;;;8.70;99.90;;;;;;5093690;28;20047;-51
2021/12/17 01:10:59;;;;;;;17.77;9.73;;;8.60;99.90;;;;;;5093351;28;20036;-50
2021/12/17 01:13:26;;;;;;;22.00;10.88;;;8.60;99.90;;;;;;5093064;28;20113;-52
2021/12/17 01:15:52;;;;;;;18.65;8.82;;;8.60;99.90;;;;;;5093499;28;20444;-51
2021/12/17 01:18:21;;;;;;;17.60;9.38;;;8.60;99.90;;;;;;5093628;28;20382;-52
2021/12/17 01:21:23;;;;;;;17.42;8.80;;;8.60;99.90;;;;;;5093021;28;20040;-52
2021/12/17 01:24:07;;;;;;;13.70;8.15;;;8.70;99.90;;;;;;5093159;28;20038;-53
2021/12/17 01:42:38;;;;;;;12.05;6.05;;;8.70;99.90;;;;;;5092845;28;20455;-50
2021/12/17 01:45:05;;;;;;;10.45;5.30;;;8.60;99.90;;;;;;5092799;28;20119;-53
2021/12/17 01:47:30;;;;;;;11.30;5.43;;;8.60;99.90;;;;;;5092911;28;20032;-52
2021/12/17 02:01:11;;;;;;;9.00;5.32;;;8.60;99.90;;;;;;5050135;28;20057;-52
2021/12/17 02:03:36;;;;;;;8.57;5.45;;;8.60;99.90;;;;;;5050190;28;20055;-51
2021/12/17 02:06:04;;;;;;;8.30;4.60;;;8.60;99.90;;;;;;5050081;28;20469;-53
2021/12/17 02:08:30;;;;;;;7.18;4.13;;;8.60;99.90;;;;;;5049875;28;20147;-52
2021/12/17 02:32:28;;;;;;;9.00;4.32;;;8.70;99.90;;;;;;5010088;28;20049;-54
2021/12/17 02:37:24;;;;;;;7.22;4.80;;;8.70;99.90;;;;;;5010234;28;20573;-51
2021/12/17 02:45:32;;;;;;;14.55;5.88;;;8.60;99.90;;;;;;5010021;28;20052;-51
2021/12/17 02:48:06;;;;;;;13.23;6.57;;;8.60;99.90;;;;;;5010050;28;20065;-52
2021/12/17 02:50:35;;;;;;;10.68;6.00;;;8.50;99.90;;;;;;5010088;28;20149;-53
2021/12/17 02:53:02;;;;;;;12.27;6.80;;;8.50;99.90;;;;;;5009966;28;20181;-50
2021/12/17 02:55:30;;;;;;;13.98;7.90;;;8.60;99.90;;;;;;5010111;28;20500;-52
2021/12/17 02:57:57;;;;;;;14.57;7.37;;;8.60;99.90;;;;;;5010138;28;20062;-52
2021/12/17 03:00:22;;;;;;;14.40;6.93;;;8.60;99.90;;;;;;5032146;28;20127;-52
2021/12/17 03:02:50;;;;;;;11.80;6.47;;;8.50;99.90;;;;;;5092158;28;20111;-52
2021/12/17 03:05:16;;;;;;;11.80;6.30;;;8.50;99.90;;;;;;5092140;28;20043;-50
2021/12/17 03:07:45;;;;;;;10.45;6.00;;;8.50;99.90;;;;;;5091943;28;20028;-50
2021/12/17 03:10:12;;;;;;;;;;;8.50;99.90;;;;;;5108060;28;20044;-51
2021/12/17 03:12:47;;;;;;;15.45;6.88;;;8.50;99.90;;;;;;5091657;28;19927;-51
2021/12/17 03:15:33;;;;;;;14.10;6.97;;;8.50;99.90;;;;;;5091930;28;20040;-51
2021/12/17 03:23:39;;;;;;;9.43;5.72;;;8.50;99.90;;;;;;5091810;28;20071;-52
2021/12/17 03:26:23;;;;;;;9.65;6.13;;;8.50;99.90;;;;;;5091864;28;20386;-53
2021/12/17 03:28:56;;;;;;;11.10;6.20;;;8.50;99.90;;;;;;5093551;28;20063;-49
2021/12/17 03:31:24;;;;;;;12.80;6.90;;;8.50;99.90;;;;;;5095543;28;20075;-51
2021/12/17 03:33:52;;;;;;;11.10;6.68;;;8.50;99.90;;;;;;5095369;28;20061;-53
2021/12/17 03:36:19;;;;;;;13.70;7.30;;;8.50;99.90;;;;;;5095410;28;20485;-51
2021/12/17 03:38:48;;;;;;;11.73;6.82;;;8.50;99.90;;;;;;5095187;28;20100;-50
2021/12/17 03:41:21;;;;;;;13.43;6.55;;;8.50;99.90;;;;;;5094962;28;20040;-51
2021/12/17 03:43:48;;;;;;;10.95;6.93;;;8.50;99.90;;;;;;5095348;28;20392;-53
2021/12/17 03:46:14;;;;;;;12.63;6.93;;;8.50;99.90;;;;;;5095015;28;20051;-52
2021/12/17 03:48:41;;;;;;;12.23;7.22;;;8.50;99.90;;;;;;5095295;28;20036;-52
2021/12/17 03:51:14;;;;;;;13.23;6.90;;;8.50;99.90;;;;;;5095057;28;20040;-50
2021/12/17 03:53:42;;;;;;;12.90;6.88;;;8.50;99.90;;;;;;5095355;28;20155;-52
2021/12/17 03:56:08;;;;;;;11.82;6.68;;;8.50;99.90;;;;;;5094721;28;20412;-52
2021/12/17 03:58:34;;;;;;;11.25;7.00;;;8.50;99.90;;;;;;5095057;28;20055;-52
2021/12/17 04:01:00;;;;;;;11.13;7.28;;;8.50;99.90;;;;;;5094989;28;20834;-53
2021/12/17 04:03:25;;;;;;;12.63;6.75;;;8.50;99.90;;;;;;5094767;28;20116;-52
2021/12/17 04:05:51;;;;;;;13.05;7.65;;;8.50;99.90;;;;;;5094579;28;20047;-52
2021/12/17 04:08:17;;;;;;;12.73;7.03;;;8.60;99.90;;;;;;5094617;28;20036;-53
2021/12/17 04:10:47;;;;;;;10.85;7.15;;;8.60;99.90;;;;;;5094461;28;20089;-51
2021/12/17 04:13:27;;;;;;;11.68;7.85;;;8.60;99.90;;;;;;5094460;28;20052;-52
2021/12/17 04:16:02;;;;;;;14.13;7.95;;;8.50;99.90;;;;;;5094719;28;20052;-53
2021/12/17 04:18:28;;;;;;;12.77;7.55;;;8.50;99.90;;;;;;5094501;28;20496;-53
2021/12/17 04:20:54;;;;;;;11.35;7.82;;;8.50;99.90;;;;;;5094113;28;20090;-52
2021/12/17 04:23:21;;;;;;;11.52;7.88;;;8.50;99.90;;;;;;5094285;28;20036;-50
2021/12/17 04:25:49;;;;;;;11.93;8.63;;;8.50;99.90;;;;;;5094368;28;20469;-50
2021/12/17 04:28:15;;;;;;;14.35;9.20;;;8.50;99.90;;;;;;5094369;28;20040;-50
2021/12/17 04:30:41;;;;;;;14.32;9.35;;;8.50;99.90;;;;;;5094279;28;20465;-51
2021/12/17 04:33:07;;;;;;;15.38;10.23;;;8.50;99.90;;;;;;5094291;28;20119;-52
2021/12/17 04:35:33;;;;;;;15.73;10.35;;;8.50;99.90;;;;;;5094161;28;20036;-50
2021/12/17 04:38:00;;;;;;;20.08;10.90;;;8.50;99.90;;;;;;5094286;28;20044;-50
2021/12/17 04:40:27;;;;;;;19.00;11.50;;;8.50;99.90;;;;;;5093103;28;20047;-52
2021/12/17 04:45:22;;;;;;;17.33;10.98;;;8.50;99.90;;;;;;5094252;28;20119;-51
2021/12/17 04:58:45;;;;;;;15.13;9.90;;;8.40;99.90;;;;;;5093951;28;20043;-53
2021/12/17 05:01:14;;;;;;;14.93;10.60;;;8.50;99.90;;;;;;5093680;28;20043;-50
2021/12/17 05:03:39;;;;;;;16.75;10.32;;;8.50;99.90;;;;;;5109652;28;20822;-52
2021/12/17 05:06:05;;;;;;;17.85;11.23;;;8.50;99.90;;;;;;5093905;28;20096;-50
2021/12/17 05:08:31;;;;;;;17.77;10.88;;;8.50;99.90;;;;;;5093158;28;20032;-50
2021/12/17 05:21:24;;;;;;;14.25;9.85;;;8.40;99.90;;;;;;5093045;28;20044;-52
2021/12/17 05:23:51;;;;;;;14.75;9.93;;;8.50;99.90;;;;;;5092908;28;20538;-51
2021/12/17 05:26:18;;;;;;;14.95;9.73;;;8.50;99.90;;;;;;5093228;28;20039;-52
2021/12/17 05:28:45;;;;;;;17.13;10.13;;;8.50;99.90;;;;;;5093045;28;20047;-51
2021/12/17 05:31:11;;;;;;;15.82;10.00;;;8.50;99.90;;;;;;5093293;28;20051;-52
2021/12/17 05:33:37;;;;;;;17.63;9.70;;;8.50;99.90;;;;;;5092878;28;20044;-52
2021/12/17 05:36:03;;;;;;;18.20;9.90;;;8.50;99.90;;;;;;5092861;28;20043;-51
2021/12/17 05:38:29;;;;;;;19.73;10.95;;;8.50;99.90;;;;;;5092865;28;20047;-52
2021/12/17 05:40:56;;;;;;;17.50;10.32;;;8.50;99.90;;;;;;5092721;28;20067;-51
2021/12/17 05:43:21;;;;;;;14.82;9.65;;;8.50;99.90;;;;;;5092971;28;20051;-52
2021/12/17 05:48:39;;;;;;;19.60;11.13;;;8.50;99.90;;;;;;5070464;28;20048;-53
2021/12/17 05:51:08;;;;;;;14.50;9.63;;;8.50;99.90;;;;;;5070075;28;20426;-53
2021/12/17 05:53:34;;;;;;;17.63;11.15;;;8.50;99.90;;;;;;5070329;28;20079;-52
2021/12/17 05:56:01;;;;;;;15.50;9.93;;;8.50;99.90;;;;;;5070265;28;20040;-52
2021/12/17 05:58:27;;;;;;;18.92;11.02;;;8.50;99.90;;;;;;5070443;28;20190;-52
2021/12/17 06:00:54;;;;;;;16.63;9.93;;;8.50;99.90;;;;;;5069942;28;20060;-52
2021/12/17 06:03:20;;;;;;;19.02;11.85;;;8.50;99.90;;;;;;5070222;28;20068;-53
2021/12/17 06:05:46;;;;;;;17.40;10.45;;;8.50;99.90;;;;;;5069924;28;20042;-51
2021/12/17 06:08:12;;;;;;;17.95;11.02;;;8.50;99.90;;;;;;5070125;28;20089;-52
2021/12/17 06:10:37;;;;;;;17.38;10.25;;;8.50;99.90;;;;;;5070132;28;20383;-50
2021/12/17 06:13:04;;;;;;;16.30;10.55;;;8.50;99.90;;;;;;5069983;28;20048;-48
2021/12/17 06:15:29;;;;;;;18.42;10.52;;;8.50;99.90;;;;;;5070159;28;20044;-52
2021/12/17 06:17:55;;;;;;;20.55;10.80;;;8.50;99.90;;;;;;5053163;28;20048;-51
2021/12/17 06:20:22;;;;;;;18.88;10.48;;;8.50;99.90;;;;;;5069706;28;20059;-53
2021/12/17 06:22:48;;;;;;;18.08;10.18;;;8.50;99.90;;;;;;5069857;28;20166;-52
2021/12/17 06:25:14;;;;;;;18.23;9.90;;;8.50;99.90;;;;;;5077705;28;20040;-50
2021/12/17 06:27:40;;;;;;;20.30;10.73;;;8.50;99.90;;;;;;5092454;28;20176;-52
2021/12/17 06:30:08;;;;;;;20.15;11.27;;;8.50;99.90;;;;;;5092433;28;20070;-50
2021/12/17 06:32:34;;;;;;;24.97;11.20;;;8.50;99.90;;;;;;5092131;28;20047;-51
2021/12/17 06:35:01;;;;;;;20.00;10.45;;;8.40;99.90;;;;;;5092606;28;20772;-52
2021/12/17 06:37:26;;;;;;;21.35;10.48;;;8.40;99.90;;;;;;5092416;28;20818;-53
2021/12/17 06:39:52;;;;;;;17.58;10.43;;;8.40;99.90;;;;;;5092188;28;20040;-50
2021/12/17 06:42:18;;;;;;;18.70;10.05;;;8.40;99.90;;;;;;5090469;28;20084;-53
2021/12/17 06:44:46;;;;;;;18.67;10.02;;;8.40;99.90;;;;;;5092051;28;20077;-50
2021/12/17 06:55:03;;;;;;;16.08;9.07;;;8.30;99.90;;;;;;5091967;28;20039;-53
2021/12/17 07:10:56;;;;;;;22.67;9.95;;;8.30;99.90;;;;;;5095867;28;20072;-51
2021/12/17 07:21:52;;;;;;;18.23;9.00;;;8.40;99.90;;;;;;5095649;28;20487;-51
2021/12/17 07:35:36;;;;;;;19.00;10.13;;;8.50;99.90;;;;;;5095492;28;20127;-51
2021/12/17 07:39:56;;;;;;;19.63;10.35;;;8.50;99.90;;;;;;5095184;28;20086;-51
2021/12/17 07:42:22;;;;;;;19.00;9.93;;;8.50;99.90;;;;;;5095109;28;20063;-50
2021/12/17 07:44:48;;;;;;;22.90;10.63;;;8.50;99.90;;;;;;5095092;28;20028;-53
2021/12/17 07:47:14;;;;;;;19.30;10.18;;;8.50;99.90;;;;;;5094202;28;20079;-52
2021/12/17 07:49:39;;;;;;;19.30;9.63;;;8.50;99.90;;;;;;5095165;28;20371;-54
2021/12/17 07:52:05;;;;;;;17.55;9.60;;;8.50;99.90;;;;;;5095114;28;20036;-51
2021/12/17 07:54:31;;;;;;;18.98;9.57;;;8.50;99.90;;;;;;5094997;28;20047;-51
2021/12/17 07:56:56;;;;;;;18.30;10.00;;;8.60;99.90;;;;;;5094955;28;20043;-54
2021/12/17 07:59:22;;;;;;;20.75;10.27;;;8.50;99.90;;;;;;5095031;28;20473;-54
2021/12/17 08:01:48;;;;;;;19.00;9.77;;;8.60;99.90;;;;;;5094691;28;20049;-53
2021/12/17 08:04:13;;;;;;;16.92;9.73;;;8.60;99.90;;;;;;5094885;28;20040;-51
2021/12/17 08:06:39;;;;;;;20.50;10.10;;;8.60;99.90;;;;;;5094904;28;20047;-54
2021/12/17 08:09:05;;;;;;;18.85;9.90;;;8.60;99.90;;;;;;5094716;28;20040;-52
2021/12/17 08:11:37;;;;;;;15.40;9.40;;;8.60;99.90;;;;;;5094377;28;20415;-50
2021/12/17 08:14:07;;;;;;;14.48;9.75;;;8.60;99.90;;;;;;5094595;28;20040;-52
2021/12/17 08:25:14;;;;;;;21.40;10.68;;;8.70;99.90;;;;;;5012122;28;20400;-51
2021/12/17 08:32:39;;;;;;;17.90;10.70;;;8.70;99.90;;;;;;5012126;28;20081;-51
2021/12/17 08:35:07;;;;;;;16.70;9.52;;;8.70;99.90;;;;;;5012029;28;20065;-53
2021/12/17 08:37:33;;;;;;;18.88;11.32;;;8.70;99.90;;;;;;5012080;28;20133;-52
2021/12/17 08:40:00;;;;;;;20.38;11.85;;;8.70;99.90;;;;;;5012028;28;20054;-50
2021/12/17 08:42:27;;;;;;;22.40;10.73;;;8.70;99.90;;;;;;5011920;28;20373;-52
2021/12/17 08:44:52;;;;;;;20.63;10.95;;;8.70;99.90;;;;;;5011902;28;20531;-52
2021/12/17 08:47:18;;;;;;;18.95;10.77;;;8.70;99.90;;;;;;5012128;28;20034;-52
2021/12/17 08:49:44;;;;;;;19.80;10.70;;;8.70;99.90;;;;;;5011987;28;20053;-50
2021/12/17 08:52:11;;;;;;;19.77;11.13;;;8.70;99.90;;;;;;5011673;28;20133;-52
2021/12/17 08:54:37;;;;;;;19.00;10.75;;;8.70;99.90;;;;;;5011736;28;20117;-52
2021/12/17 08:57:03;;;;;;;18.45;10.23;;;8.80;99.90;;;;;;5042132;28;20140;-52
2021/12/17 08:59:29;;;;;;;17.58;10.68;;;8.80;99.90;;;;;;5087805;28;20052;-50
2021/12/17 09:01:55;;;;;;;14.80;9.18;;;8.80;99.90;;;;;;5093438;28;20098;-51
2021/12/17 09:04:22;;;;;;;17.85;10.38;;;8.80;99.90;;;;;;5093390;28;20032;-52
2021/12/17 09:06:49;;;;;;;19.75;10.73;;;8.90;99.90;;;;;;5093599;28;20039;-50
2021/12/17 09:09:18;;;;;;;16.38;10.70;;;8.90;99.90;;;;;;5093584;28;20055;-53
2021/12/17 09:11:44;;;;;;;20.35;10.75;;;8.90;99.90;;;;;;5093062;28;20107;-50
2021/12/17 09:14:12;;;;;;;19.88;9.68;;;8.90;99.90;;;;;;5093575;28;20032;-51
2021/12/17 09:16:39;;;;;;;22.60;10.32;;;8.90;99.90;;;;;;5108301;28;20478;-51
2021/12/17 09:19:07;;;;;;;15.18;9.55;;;8.90;99.90;;;;;;5093507;28;20040;-54
2021/12/17 09:21:33;;;;;;;18.75;10.25;;;8.90;99.90;;;;;;5093541;28;20089;-51
2021/12/17 09:23:59;;;;;;;15.30;9.38;;;8.90;99.90;;;;;;5093134;28;20547;-51
2021/12/17 09:26:26;;;;;;;13.80;8.40;;;9.00;99.90;;;;;;5092703;28;20078;-52
2021/12/17 09:28:52;;;;;;;19.70;9.45;;;9.00;99.90;;;;;;5093249;28;20115;-52
2021/12/17 09:31:18;;;;;;;15.77;8.98;;;9.00;99.90;;;;;;5109046;28;20052;-51
2021/12/17 09:33:49;;;;;;;16.35;8.90;;;9.00;99.90;;;;;;5092862;28;20462;-51
2021/12/17 09:36:16;;;;;;;18.88;9.55;;;9.00;99.90;;;;;;5093266;28;20125;-52
2021/12/17 09:38:42;;;;;;;17.20;9.23;;;9.10;99.90;;;;;;5092847;28;20394;-53
2021/12/17 09:41:09;;;;;;;16.50;9.18;;;9.10;99.90;;;;;;5093092;28;20036;-53
2021/12/17 09:43:37;;;;;;;20.17;8.50;;;9.10;99.90;;;;;;5093038;28;20043;-52
2021/12/17 09:46:06;;;;;;;17.25;8.77;;;9.10;99.90;;;;;;5092736;28;20036;-51
2021/12/17 09:48:34;;;;;;;12.52;7.75;;;9.20;99.90;;;;;;5108830;28;20036;-52
2021/12/17 09:51:01;;;;;;;13.63;7.85;;;9.20;99.90;;;;;;5093258;28;20044;-51
2021/12/17 09:53:27;;;;;;;16.25;7.68;;;9.20;99.90;;;;;;5092935;28;20039;-53
2021/12/17 09:55:53;;;;;;;14.00;7.57;;;9.20;99.90;;;;;;5092743;28;20043;-52
2021/12/17 09:58:18;;;;;;;13.20;7.40;;;9.20;99.90;;;;;;5092743;28;20044;-52
2021/12/17 10:00:44;;;;;;;15.35;8.20;;;9.20;99.90;;;;;;5108250;28;20040;-51
2021/12/17 10:03:10;;;;;;;18.55;8.18;;;9.20;99.90;;;;;;5092641;28;20036;-51
2021/12/17 10:05:38;;;;;;;18.08;8.73;;;9.20;99.90;;;;;;5092686;28;20115;-52
2021/12/17 10:08:06;;;;;;;14.15;7.43;;;9.20;99.90;;;;;;5092489;28;20474;-52
2021/12/17 10:10:43;;;;;;;15.55;8.10;;;9.30;99.90;;;;;;5092604;28;20047;-51
2021/12/17 10:13:15;;;;;;;12.27;7.35;;;9.20;99.90;;;;;;5092266;28;20056;-51
2021/12/17 10:15:44;;;;;;;14.18;7.00;;;9.20;99.90;;;;;;5092555;28;20044;-52
2021/12/17 10:18:10;;;;;;;;;;;9.20;99.90;;;;;;5092755;28;20494;-51
2021/12/17 10:20:47;;;;;;;14.68;7.32;;;9.30;99.90;;;;;;5092412;28;19960;-52
2021/12/17 10:23:13;;;;;;;14.25;7.35;;;9.20;99.90;;;;;;5092607;28;20050;-51
2021/12/17 10:25:43;;;;;;;19.40;8.15;;;9.20;99.90;;;;;;5092521;28;20426;-51
2021/12/17 10:28:10;;;;;;;13.60;7.45;;;9.30;99.90;;;;;;5092346;28;20039;-51
2021/12/17 10:30:38;;;;;;;17.17;8.55;;;9.30;99.90;;;;;;5092384;28;20040;-52
2021/12/17 10:33:07;;;;;;;16.80;8.48;;;9.30;99.90;;;;;;5092319;28;20097;-51
2021/12/17 10:35:35;;;;;;;17.52;8.18;;;9.30;99.90;;;;;;5092189;28;20048;-51
2021/12/17 10:38:11;;;;;;;14.63;7.93;;;9.30;99.90;;;;;;5092735;28;20537;-52
2021/12/17 10:40:49;;;;;;;14.23;7.70;;;9.30;99.90;;;;;;5096495;28;20089;-50
2021/12/17 10:43:25;;;;;;;13.45;7.38;;;9.30;99.90;;;;;;5096428;28;20097;-50
2021/12/17 10:46:02;;;;;;;12.02;7.20;;;9.30;99.90;;;;;;5096436;28;20386;-53
2021/12/17 10:48:36;;;;;;;15.35;7.75;;;9.30;99.90;;;;;;5096210;28;20073;-52
2021/12/17 10:51:08;;;;;;;12.18;8.02;;;9.30;99.90;;;;;;5096426;28;20054;-52
2021/12/17 10:53:34;;;;;;;12.00;7.22;;;9.30;99.90;;;;;;5096260;28;20367;-51
2021/12/17 10:56:00;;;;;;;14.30;7.78;;;9.30;99.90;;;;;;5096227;28;20043;-52
2021/12/17 10:58:26;;;;;;;13.60;7.70;;;9.40;99.90;;;;;;5095935;28;20478;-52
2021/12/17 11:01:06;;;;;;;11.85;6.72;;;9.40;99.90;;;;;;5096164;28;20096;-50
2021/12/17 11:03:41;;;;;;;10.40;7.00;;;9.50;99.90;;;;;;5096281;28;20068;-51
2021/12/17 11:06:08;;;;;;;11.98;6.93;;;9.40;99.90;;;;;;5096306;28;20028;-50
2021/12/17 11:08:37;;;;;;;9.50;6.32;;;9.50;99.90;;;;;;5095976;28;20044;-50
2021/12/17 11:11:10;;;;;;;11.70;6.07;;;9.50;99.90;;;;;;5095789;28;20482;-49
2021/12/17 11:13:51;;;;;;;11.80;7.22;;;9.50;99.90;;;;;;5095720;28;20052;-51
2021/12/17 11:16:18;;;;;;;9.60;6.97;;;9.50;99.90;;;;;;5095963;28;20138;-52
2021/12/17 11:18:44;;;;;;;11.52;6.00;;;9.50;99.90;;;;;;5095757;28;20036;-53
2021/12/17 11:21:11;;;;;;;10.65;6.13;;;9.60;99.90;;;;;;5095448;28;20040;-51
2021/12/17 11:23:37;;;;;;;7.35;6.00;;;9.60;99.90;;;;;;5098111;28;20362;-50
2021/12/17 11:26:03;;;;;;;11.35;5.82;;;9.60;99.90;;;;;;5095290;28;20043;-53
2021/12/17 11:28:29;;;;;;;7.38;5.63;;;9.60;99.90;;;;;;5095109;28;20048;-51
2021/12/17 11:30:54;;;;;;;8.90;5.97;;;9.60;99.90;;;;;;5095193;28;20428;-51
2021/12/17 11:33:20;;;;;;;7.15;5.43;;;9.70;99.90;;;;;;5095383;28;20044;-51
2021/12/17 11:35:49;;;;;;;9.23;4.78;;;9.70;99.90;;;;;;5095305;28;20097;-51
2021/12/17 11:38:30;;;;;;;;;;;9.70;99.90;;;;;;5095938;28;20115;-53
2021/12/17 11:41:13;;;;;;;7.10;5.05;;;9.60;99.90;;;;;;5094968;28;20430;-51
2021/12/17 11:44:01;;;;;;;6.07;4.43;;;9.70;99.90;;;;;;5095270;28;20068;-52
2021/12/17 11:46:32;;;;;;;6.47;4.75;;;9.60;99.90;;;;;;5095192;28;20039;-51
2021/12/17 11:49:01;;;;;;;6.00;4.25;;;9.70;99.90;;;;;;5094734;28;20044;-53
2021/12/17 11:51:29;;;;;;;;;;;9.70;99.90;;;;;;5095671;28;20050;-51
2021/12/17 11:53:56;;;;;;;5.03;4.07;;;9.70;99.90;;;;;;5094684;28;20362;-52
2021/12/17 11:56:41;;;;;;;6.30;4.57;;;9.70;99.90;;;;;;5095011;28;20059;-53
2021/12/17 11:59:10;;;;;;;6.38;4.50;;;9.70;99.90;;;;;;5095128;28;20040;-52
2021/12/17 12:02:34;;;;;;;6.65;4.82;;;9.70;99.90;;;;;;5094953;28;20197;-50
2021/12/17 12:05:03;;;;;;;6.45;4.78;;;9.60;99.90;;;;;;5012378;28;20054;-50
2021/12/17 12:07:28;;;;;;;5.93;5.15;;;9.60;99.90;;;;;;5012505;28;20065;-52
2021/12/17 12:09:59;;;;;;;6.07;5.32;;;9.70;99.90;;;;;;5012428;28;20049;-52
2021/12/17 12:12:51;;;;;;;6.07;5.00;;;9.70;99.90;;;;;;5012501;28;20046;-52
2021/12/17 12:15:27;;;;;;;6.68;4.82;;;9.60;99.90;;;;;;5011264;28;20046;-52
2021/12/17 12:18:05;;;;;;;7.93;5.43;;;9.70;99.90;;;;;;5011345;28;20049;-51
2021/12/17 12:20:46;;;;;;;8.10;5.18;;;9.60;99.90;;;;;;5011345;28;20411;-53
2021/12/17 12:23:13;;;;;;;7.50;5.45;;;9.70;99.90;;;;;;5011277;28;20038;-50
2021/12/17 12:25:38;;;;;;;10.48;5.78;;;9.70;99.90;;;;;;5011231;28;20048;-53
2021/12/17 12:28:04;;;;;;;6.55;5.00;;;9.60;99.90;;;;;;5011238;28;20501;-51
2021/12/17 12:30:38;;;;;;;7.50;5.47;;;9.60;99.90;;;;;;5010972;28;20052;-52
2021/12/17 12:33:05;;;;;;;9.82;5.55;;;9.70;99.90;;;;;;5011433;28;20088;-50
2021/12/17 12:35:31;;;;;;;7.47;5.15;;;9.70;99.90;;;;;;5011190;28;20065;-52
2021/12/17 12:38:22;;;;;;;7.45;5.57;;;9.70;99.90;;;;;;5011236;28;20049;-53
2021/12/17 12:40:52;;;;;;;;;;;9.60;99.90;;;;;;5032519;28;20040;-51
2021/12/17 12:43:25;;;;;;;7.05;4.95;;;9.70;99.90;;;;;;5093283;28;19970;-51
2021/12/17 12:45:51;;;;;;;10.27;6.25;;;9.70;99.90;;;;;;5093292;28;20032;-52
2021/12/17 12:48:42;;;;;;;9.98;5.63;;;9.70;99.90;;;;;;5092915;28;20478;-49
2021/12/17 12:51:15;;;;;;;10.05;5.65;;;9.70;99.90;;;;;;5091668;28;20048;-51
2021/12/17 12:53:46;;;;;;;8.00;5.88;;;9.70;99.90;;;;;;5092985;28;20043;-51
2021/12/17 12:56:19;;;;;;;7.00;5.25;;;9.70;99.90;;;;;;5093159;28;20141;-53
2021/12/17 12:58:48;;;;;;;9.25;5.20;;;9.70;99.90;;;;;;5092788;28;20047;-51
2021/12/17 13:01:15;;;;;;;7.57;5.90;;;9.70;99.90;;;;;;5091619;28;20051;-51
2021/12/17 13:03:42;;;;;;;9.23;5.35;;;9.70;99.90;;;;;;5092649;28;20485;-48
2021/12/17 13:06:15;;;;;;;8.48;5.38;;;9.70;99.90;;;;;;5092591;28;20039;-52
2021/12/17 13:08:40;;;;;;;6.32;4.97;;;9.70;99.90;;;;;;5092765;28;20032;-52
2021/12/17 13:11:07;;;;;;;6.88;5.40;;;9.70;99.90;;;;;;5092600;28;20436;-53
2021/12/17 13:13:38;;;;;;;9.20;5.80;;;9.70;99.90;;;;;;5055798;28;1049842;-53
2021/12/17 13:16:16;;;;;;;7.97;5.60;;;9.70;99.90;;;;;;5093482;28;20427;-51
2021/12/17 13:26:34;;;;;;;6.55;5.57;;;9.70;99.90;;;;;;5093637;28;20119;-50
2021/12/17 13:29:15;;;;;;;5.95;5.35;;;9.70;99.90;;;;;;5091728;28;20040;-51
2021/12/17 13:31:40;;;;;;;8.13;4.95;;;9.70;99.90;;;;;;5093351;28;20048;-51
2021/12/17 13:34:19;;;;;;;6.82;4.57;;;9.70;99.90;;;;;;5108703;28;20092;-50
2021/12/17 13:36:53;;;;;;;5.30;4.00;;;9.70;99.90;;;;;;5093237;28;20114;-53
2021/12/17 13:39:21;;;;;;;6.30;4.43;;;9.70;99.90;;;;;;5092930;28;20362;-53
2021/12/17 13:41:47;;;;;;;5.50;4.95;;;9.60;99.90;;;;;;5093034;28;20119;-52
2021/12/17 13:44:32;;;;;;;5.05;4.50;;;9.70;99.90;;;;;;5092998;28;20413;-51
2021/12/17 13:47:10;;;;;;;5.18;4.68;;;9.70;99.90;;;;;;5093026;28;20071;-53
2021/12/17 13:49:37;;;;;;;5.05;4.57;;;9.70;99.90;;;;;;5092739;28;20040;-52
2021/12/17 13:52:05;;;;;;;6.18;5.22;;;9.70;99.90;;;;;;5092718;28;20071;-52
2021/12/17 13:54:31;;;;;;;5.80;5.22;;;9.70;99.90;;;;;;5093081;28;20040;-52
2021/12/17 13:56:58;;;;;;;7.32;5.40;;;9.70;99.90;;;;;;5092687;28;20375;-49
2021/12/17 13:59:35;;;;;;;5.13;4.35;;;9.70;99.90;;;;;;5092596;28;20040;-48
2021/12/17 14:02:18;;;;;;;5.95;5.05;;;9.70;99.90;;;;;;5092743;28;20051;-51
2021/12/17 14:05:03;;;;;;;6.28;5.20;;;9.70;99.90;;;;;;5092868;28;20101;-53
2021/12/17 14:07:31;;;;;;;7.13;5.30;;;9.70;99.90;;;;;;5092623;28;20036;-52
2021/12/17 14:10:00;;;;;;;6.85;5.93;;;9.70;99.90;;;;;;5092458;28;20032;-51
2021/12/17 14:12:31;;;;;;;7.07;6.38;;;9.70;99.90;;;;;;5092406;28;20067;-52
2021/12/17 14:15:09;;;;;;;7.80;6.45;;;9.70;99.90;;;;;;5092159;28;20451;-53
2021/12/17 14:17:40;;;;;;;7.05;5.43;;;9.70;99.90;;;;;;5092221;28;20485;-49
2021/12/17 14:20:10;;;;;;;7.05;5.75;;;9.70;99.90;;;;;;5092284;28;20398;-53
2021/12/17 14:22:37;;;;;;;7.85;5.63;;;9.70;99.90;;;;;;5092631;28;20798;-53
2021/12/17 14:25:41;;;;;;;7.78;5.78;;;9.70;99.90;;;;;;5092694;28;20032;-53
2021/12/17 14:28:20;;;;;;;8.13;5.88;;;9.70;99.90;;;;;;5069823;28;20399;-52
2021/12/17 14:30:57;;;;;;;7.88;5.55;;;9.70;99.90;;;;;;5069750;28;20095;-52
2021/12/17 14:33:31;;;;;;;9.23;5.82;;;9.70;99.90;;;;;;5069852;28;20542;-51
2021/12/17 14:36:20;;;;;;;6.63;5.30;;;9.70;99.90;;;;;;5070009;28;20041;-51
2021/12/17 14:38:48;;;;;;;7.93;4.93;;;9.70;99.90;;;;;;5069380;28;20051;-53
2021/12/17 14:41:25;;;;;;;6.00;4.80;;;9.70;99.90;;;;;;5069748;28;20040;-51
2021/12/17 14:43:57;;;;;;;5.80;5.15;;;9.70;99.90;;;;;;5069888;28;20053;-52
2021/12/17 14:46:28;;;;;;;6.53;5.47;;;9.70;99.90;;;;;;5070050;28;20098;-49
2021/12/17 14:57:25;;;;;;;7.35;6.00;;;9.60;99.90;;;;;;5069818;28;20044;-52
2021/12/17 15:02:56;;;;;;;6.80;5.60;;;9.60;99.90;;;;;;4992615;28;20484;-53
2021/12/17 15:05:25;;;;;;;9.80;6.10;;;9.60;99.90;;;;;;5010028;28;20080;-51
2021/12/17 15:07:51;;;;;;;8.77;6.05;;;9.60;99.90;;;;;;5009931;28;20069;-50
2021/12/17 15:10:19;;;;;;;9.07;5.68;;;9.60;99.90;;;;;;5009909;28;20077;-49
2021/12/17 15:12:46;;;;;;;7.65;5.63;;;9.60;99.90;;;;;;5010026;28;20447;-51
2021/12/17 15:15:14;;;;;;;6.47;5.75;;;9.60;99.90;;;;;;5009775;28;20054;-50
2021/12/17 15:17:40;;;;;;;9.40;5.57;;;9.60;99.90;;;;;;5009861;28;20099;-51
2021/12/17 15:20:08;;;;;;;8.50;6.13;;;9.60;99.90;;;;;;5009734;28;20506;-49
2021/12/17 15:22:33;;;;;;;8.23;5.38;;;9.60;99.90;;;;;;5009760;28;20507;-51
2021/12/17 15:24:59;;;;;;;7.78;5.57;;;9.60;99.90;;;;;;5011822;28;20034;-52
2021/12/17 15:27:25;;;;;;;7.72;5.93;;;9.60;99.90;;;;;;5013363;28;20057;-52
2021/12/17 15:29:51;;;;;;;8.18;6.10;;;9.50;99.90;;;;;;5013319;28;20122;-49
2021/12/17 15:32:17;;;;;;;8.73;5.93;;;9.60;99.90;;;;;;5013296;28;20503;-52
2021/12/17 15:34:42;;;;;;;7.93;5.78;;;9.50;99.90;;;;;;5013656;28;20407;-51
2021/12/17 15:37:08;;;;;;;7.95;5.85;;;9.50;99.90;;;;;;5013232;28;20383;-49
2021/12/17 15:39:33;;;;;;;10.85;6.35;;;9.50;99.90;;;;;;5051025;28;20508;-53
2021/12/17 15:41:59;;;;;;;9.20;5.78;;;9.50;99.90;;;;;;5095163;28;20040;-52
2021/12/17 15:44:24;;;;;;;8.27;5.90;;;9.50;99.90;;;;;;5095070;28;20127;-53
2021/12/17 15:46:51;;;;;;;7.53;6.07;;;9.50;99.90;;;;;;5095400;28;20036;-53
2021/12/17 15:49:17;;;;;;;6.63;5.85;;;9.50;99.90;;;;;;5095427;28;20115;-51
2021/12/17 15:51:43;;;;;;;7.82;5.80;;;9.50;99.90;;;;;;5095072;28;20466;-52
2021/12/17 15:54:08;;;;;;;9.35;6.32;;;9.50;99.90;;;;;;5095019;28;20082;-51
2021/12/17 15:56:34;;;;;;;9.07;7.03;;;9.50;99.90;;;;;;5093799;28;20078;-51
2021/12/17 15:59:02;;;;;;;9.73;6.95;;;9.40;99.90;;;;;;5094990;28;20486;-49
2021/12/17 16:01:28;;;;;;;13.45;7.43;;;9.50;99.90;;;;;;5094664;28;20087;-54
2021/12/17 16:03:53;;;;;;;11.95;7.30;;;9.40;99.90;;;;;;5094573;28;20477;-52
2021/12/17 16:06:20;;;;;;;15.23;7.45;;;9.40;99.90;;;;;;5094898;28;20074;-52
2021/12/17 16:08:50;;;;;;;12.40;7.55;;;9.40;99.90;;;;;;5094657;28;20075;-49
2021/12/17 16:21:56;;;;;;;16.27;8.30;;;9.30;99.90;;;;;;5094252;28;20059;-50
2021/12/17 16:24:22;;;;;;;13.45;7.60;;;9.30;99.90;;;;;;5094266;28;20042;-53